Flight Track Log - Related Links

Times and Time Zones

All times are in EDT time to prevent confusion due to time zone crossing. See the SKW5510 flight status page for this flight to view local times or setup timezone preferences in your user account.

Time Position Orientation Groundspeed Altitude Reporting Facility
EDT Latitude Longitude Course Direction KTS MPH feet Rate Location/Type
Sat 06:31:29 PM 39.9333 -104.7167 346° North 206 237 7,700  Level Denver TRACON
Sat 06:32:35 PM 40.0167 -104.7333 351° North 267 307 8,600 1,238 Climbing Denver TRACON
Sat 06:33:35 PM 40.0833 -104.7500 349° North 291 335 10,300 1,952 Climbing Denver TRACON
Sat 06:34:00 PM 40.2868 -104.8077 347° North  Level FlightAware Approximate
Sat 06:34:41 PM 40.1833 -104.7167 14° North 289 333 12,700  Level Denver TRACON
Sat 06:35:00 PM 40.3961 -104.8431 346° North  Level FlightAware Approximate
Sat 06:36:00 PM 40.5053 -104.8795 346° North  Level FlightAware Approximate
Sat 06:36:06 PM 40.3139 -104.6956 North 335 386 15,000  Level Denver Center
Sat 06:37:07 PM 40.4039 -104.7258 346° North 332 382 17,000 1,756 Climbing Denver Center
Sat 06:38:09 PM 40.4911 -104.7556 345° North 325 374 18,600 1,512 Climbing Denver Center
Sat 06:39:10 PM 40.5903 -104.7869 346° North 341 392 20,100 1,268 Climbing Denver Center
Sat 06:40:12 PM 40.6850 -104.8192 346° North 353 406 21,200 1,210 Climbing Denver Center
Sat 06:41:14 PM 40.7861 -104.8500 347° North 349 402 22,600 1,122 Climbing Denver Center
Sat 06:42:15 PM 40.8836 -104.8972 340° North 368 423 23,500 844 Climbing Denver Center
Sat 06:43:29 PM 40.9817 -104.9458 339° North 377 434 24,500 851 Climbing Denver Center
Sat 06:44:43 PM 41.1153 -105.0114 340° North 387 445 25,600 794 Climbing Denver Center
Sat 06:45:45 PM 41.2303 -105.0683 340° North 394 453 26,300 683 Climbing Denver Center
Sat 06:46:46 PM 41.3497 -105.1278 340° North 407 468 27,000 634 Climbing Denver Center
Sat 06:47:48 PM 41.4539 -105.1797 340° North 413 475 27,600 581 Climbing Denver Center
Sat 06:48:50 PM 41.5739 -105.2461 338° Northwest 417 480 28,200 488 Climbing Denver Center
Sat 06:49:51 PM 41.6461 -105.3247 321° Northwest 417 480 28,600 439 Climbing Denver Center
Sat 06:50:53 PM 41.7492 -105.4364 321° Northwest 423 487 29,100 532 Climbing Denver Center
Sat 06:51:55 PM 41.8522 -105.5483 321° Northwest 427 491 29,700 537 Climbing Denver Center
Sat 06:52:56 PM 41.9403 -105.6431 321° Northwest 427 491 30,200 488 Climbing Denver Center
Sat 06:53:58 PM 42.0450 -105.7569 321° Northwest 432 497 30,700 484 Climbing Denver Center
Sat 06:55:00 PM 42.1344 -105.8547 321° Northwest 430 495 31,200 488 Climbing Denver Center
Sat 06:56:01 PM 42.2239 -105.9536 321° Northwest 433 498 31,700 390 Climbing Denver Center
Sat 06:57:03 PM 42.3264 -106.0692 320° Northwest 431 496 32,000 145 Climbing Denver Center
Sat 06:58:05 PM 42.4169 -106.1689 321° Northwest 434 499 32,000  Level Denver Center
Sat 06:59:06 PM 42.5233 -106.2883 320° Northwest 443 510 32,000  Level Denver Center
Sat 07:00:20 PM 42.6161 -106.3942 320° Northwest 452 520 32,000  Level Denver Center
Sat 07:01:22 PM 42.7447 -106.5372 321° Northwest 463 533 32,000  Level Denver Center
Sat 07:02:23 PM 42.8397 -106.6456 320° Northwest 466 536 32,000  Level Denver Center
Sat 07:03:25 PM 42.9508 -106.7728 320° Northwest 465 535 32,000  Level Denver Center
Sat 07:04:26 PM 43.0475 -106.8828 320° Northwest 470 541 32,000  Level Denver Center
Sat 07:05:28 PM 43.1433 -106.9914 320° Northwest 468 539 32,000 44 Level Denver Center
Sat 07:06:41 PM 43.2692 -107.1386 320° Northwest 463 533 32,100  Climbing Salt Lake Center
Sat 07:07:42 PM 43.3639 -107.2481 320° Northwest 463 533 32,000 -49 Descending Salt Lake Center
Sat 07:08:43 PM 43.4664 -107.3678 320° Northwest 463 533 32,000  Level Salt Lake Center
Sat 07:09:45 PM 43.5767 -107.4981 319° Northwest 469 540 32,000  Level Salt Lake Center
Sat 07:10:46 PM 43.6717 -107.6097 320° Northwest 469 540 32,000  Level Salt Lake Center
Sat 07:11:47 PM 43.7669 -107.7225 319° Northwest 472 543 32,000  Level Salt Lake Center
Sat 07:12:49 PM 43.8783 -107.8564 319° Northwest 475 547 32,000 -1,024 Level Salt Lake Center
Sat 07:13:50 PM 43.9744 -107.9694 320° Northwest 474 545 29,900 -3,246 Descending Salt Lake Center
Sat 07:14:51 PM 44.0761 -108.1169 314° West 476 548 25,400 -3,707 Descending Salt Lake Center
Sat 07:15:53 PM 44.1631 -108.2511 312° West 458 527 22,300 -3,268 Descending Salt Lake Center
Sat 07:16:54 PM 44.2244 -108.3794 304° West 433 498 18,700 -2,410 Descending Salt Lake Center
Sat 07:17:55 PM 44.2908 -108.5219 303° West 426 490 17,400 -1,279 Descending Salt Lake Center
Sat 07:19:00 PM 44.3534 -108.6620 302° West  Level FlightAware Approximate
Sat 07:26:00 PM 44.5167 -109.0167 313° West  Level FlightAware Approximate
Sat 07:27:00 PM 44.5202 -109.0238 313° West  Level Estimated

Login

Don't have an account? Register now (free) for customized features, flight alerts, and more!